ROMMA est une association bénévole à but non lucratif. Votre soutien est indispensable : ADHERER à ROMMA ou FAIRE un DON

Saint-Vallier-de-Thiey - (06, Alpes-Maritimes)

Côte-d'Azur (723 m)   Longitude: 06° 50' 21" E   Latitude: 43° 42' 8" N Station partenaire n°150
 

Détail journalier du     <<     >>

Température Precipitation Humidité Pression Vent Dir Rafale Dir. rafale
Heure (°C) (mm) (%) (hPa) (km/h) (km/h)
01:00 15.704410085N23NNO
02:00 15.404410086N19NNO
03:00 16.404010083N13N
04:00 13.404610073ENE18NNO
05:00 16.902810074NNE18N
06:00 15.302510085NNO21NNE
07:00 12.904010082NNE13NNE
08:00 11.405710102NNO8NNO
09:00 15.206610101NNO5NNO
10:00 18.305410112NNO8S
11:00 18.906110114SO15S
12:00 18.306310126SSO19S
13:00 19.405310126SSO16SSO
14:00 19.305010136SO21SO
15:00 19.504910136SSO23SSO
16:00 20.005110137SSO21SO
17:00 18.605510136SSO19SSO
18:00 17.405810144SO16SO
19:00 15.106310142SSO11SSO
20:00 12.807310141SO3SO
21:00 11.6077101500---
22:00 11.5076101505SO
23:00 11.007410161SO5OSO
minuit 12.107010163NO15N

Graphique du 03-10-2019

 

Serveur OMMA